Overview Statistics Trail Chart Weather Telemetry Raw packets
 

This is the latest recevied weather packets stored in our database for station/object SV9TNF-51. If no packets are shown the sender has not sent any weather packets the latest 10 day(s).

<< 106 107 108 109 110 111 112 >>
Time Temp. Humidity Pressure Rain* Wind** Luminosity Snow
1787860002 28.33° C 58% 1013.2 hPa 0 mm 1.34 m/s, 123° - -
1787859701 28.33° C 60% 1013.2 hPa 0 mm 1.34 m/s, 87° - -
1787859401 28.89° C 62% 1013.2 hPa 0 mm 0.45 m/s, 136° - -
1787859101 28.89° C 60% 1013.2 hPa 0 mm 1.79 m/s, 127° - -
1787858801 29.44° C 55% 1013.2 hPa 0 mm 0 m/s - -
1787858501 28.89° C 49% 1012.5 hPa 0 mm 4.02 m/s, 68° - -
1787858200 29.44° C 48% 1012.5 hPa 0 mm 1.79 m/s, 128° - -
1787857901 29.44° C 45% 1013.2 hPa 0 mm 2.68 m/s, 139° - -
1787857601 29.44° C 45% 1013.2 hPa 0 mm 0 m/s - -
1787857300 29.44° C 46% 1013.2 hPa 0 mm 1.34 m/s, 122° - -
1787857000 29.44° C 45% 1012.5 hPa 0 mm 1.34 m/s, 117° - -
1787856700 29.44° C 46% 1012.5 hPa 0 mm 0.45 m/s, 124° - -
1787856400 29.44° C 46% 1012.2 hPa 0 mm 1.79 m/s, 119° - -
1787856100 29.44° C 45% 1012.2 hPa 0 mm 4.02 m/s, 127° - -
1787855800 29.44° C 49% 1012.2 hPa 0 mm 0 m/s - -
1787855500 29.44° C 48% 1012.2 hPa 0 mm 0 m/s - -
1787855200 28.89° C 51% 1012.2 hPa 0 mm 0.89 m/s, 125° - -
1787854900 28.89° C 52% 1012.2 hPa 0 mm 1.34 m/s, 128° - -
1787854599 29.44° C 53% 1012.2 hPa 0 mm 0 m/s - -
1787854300 29.44° C 52% 1012.2 hPa 0 mm 1.34 m/s, 125° - -
1787853999 29.44° C 54% 1012.2 hPa 0 mm 0.45 m/s, 127° - -
1787853699 29.44° C 52% 1012.2 hPa 0 mm 1.79 m/s, 138° - -
1787853399 29.44° C 52% 1012.2 hPa 0 mm 0 m/s - -
1787853099 29.44° C 55% 1012.2 hPa 0 mm 0 m/s - -
1787852799 28.89° C 55% 1012.2 hPa 0 mm 0 m/s - -

* Rain latest hour (hover to see other rain measurements)
** Current wind speed in m/s (hover to see current wind gust speed)